createdAt,value
2018-04-24T00:00:42.684Z,7.10
2018-04-24T00:02:35.412Z,7.20
2018-04-24T00:03:35.303Z,7.40
2018-04-24T00:05:28.134Z,7.30
2018-04-24T00:06:28.037Z,7.80
2018-04-24T00:08:20.797Z,7.20
2018-04-24T00:09:20.681Z,8.60
2018-04-24T00:11:13.428Z,7.10
2018-04-24T00:12:13.372Z,6.90
2018-04-24T00:14:06.102Z,6.40
2018-04-24T00:15:05.981Z,6.40
2018-04-24T00:16:59.254Z,7.40
2018-04-24T00:17:59.147Z,6.50
2018-04-24T00:19:52.423Z,7.20
2018-04-24T00:20:52.299Z,7.30
2018-04-24T00:22:45.180Z,6.60
2018-04-24T00:23:45.078Z,7.70
2018-04-24T00:25:37.813Z,8.20
2018-04-24T00:26:37.702Z,6.40
2018-04-24T00:28:30.587Z,6.80
2018-04-24T00:29:30.442Z,6.70
2018-04-24T00:31:23.189Z,6.30
2018-04-24T00:32:23.093Z,7.30
2018-04-24T00:34:16.011Z,6.60
2018-04-24T00:35:15.870Z,7.50
2018-04-24T00:37:08.590Z,7.70
2018-04-24T00:38:08.492Z,6.50
2018-04-24T00:40:01.359Z,6.70
2018-04-24T00:41:01.237Z,6.30
2018-04-24T00:42:53.982Z,7.40
2018-04-24T00:43:53.890Z,7.00
2018-04-24T00:45:46.789Z,8.60
2018-04-24T00:46:46.538Z,7.10
2018-04-24T00:48:39.278Z,6.40
2018-04-24T00:49:39.185Z,5.90
2018-04-24T00:51:32.040Z,6.40
2018-04-24T00:52:31.930Z,6.70
2018-04-24T00:54:24.668Z,6.40
2018-04-24T00:55:24.577Z,7.30
2018-04-24T00:57:17.335Z,6.80
2018-04-24T00:58:17.226Z,6.30
2018-04-24T01:00:10.118Z,6.20
2018-04-24T01:01:09.897Z,8.10
2018-04-24T01:03:02.642Z,6.40
2018-04-24T01:04:02.525Z,6.60
2018-04-24T01:05:55.283Z,6.80
2018-04-24T01:06:55.169Z,6.40
2018-04-24T01:08:47.911Z,6.30
2018-04-24T01:09:47.821Z,6.90
2018-04-24T01:11:40.578Z,7.10
2018-04-24T01:12:40.475Z,7.10
2018-04-24T01:14:33.215Z,6.70
2018-04-24T01:15:33.133Z,6.50
2018-04-24T01:17:25.906Z,7.80
2018-04-24T01:18:25.774Z,6.90
2018-04-24T01:20:18.500Z,6.50
2018-04-24T01:21:18.401Z,7.00
2018-04-24T01:23:11.185Z,7.10
2018-04-24T01:24:11.051Z,8.50
2018-04-24T01:26:03.890Z,7.10
2018-04-24T01:27:03.796Z,7.00
2018-04-24T01:28:56.562Z,7.70
2018-04-24T01:29:56.447Z,7.90
2018-04-24T01:31:49.192Z,8.20
2018-04-24T01:32:49.105Z,7.20
2018-04-24T01:34:41.952Z,7.10
2018-04-24T01:35:41.837Z,7.90
2018-04-24T01:37:34.614Z,8.40
2018-04-24T01:38:34.625Z,7.30
2018-04-24T01:40:27.236Z,7.50
2018-04-24T01:41:27.207Z,7.10
2018-04-24T01:43:19.917Z,7.10
2018-04-24T01:44:19.782Z,7.20
2018-04-24T01:46:12.535Z,8.10
2018-04-24T01:47:12.431Z,7.10
2018-04-24T01:49:05.206Z,7.10
2018-04-24T01:50:05.215Z,7.10
2018-04-24T01:51:57.841Z,7.90
2018-04-24T01:52:57.798Z,7.80
2018-04-24T01:54:51.002Z,8.10
2018-04-24T01:55:50.914Z,7.50
2018-04-24T01:57:43.651Z,6.90
2018-04-24T01:58:43.531Z,7.50
2018-04-24T02:00:36.283Z,7.30
2018-04-24T02:01:36.177Z,8.00
2018-04-24T02:03:28.919Z,7.50
2018-04-24T02:04:28.843Z,7.30
2018-04-24T02:06:21.587Z,7.30
2018-04-24T02:07:21.470Z,7.10
2018-04-24T02:09:14.248Z,7.50
2018-04-24T02:10:14.121Z,7.40
2018-04-24T02:12:06.975Z,7.40
2018-04-24T02:13:06.875Z,6.90
2018-04-24T02:14:59.643Z,7.60
2018-04-24T02:15:59.530Z,7.60
2018-04-24T02:17:52.290Z,7.60
2018-04-24T02:18:52.173Z,9.10
2018-04-24T02:20:45.016Z,7.40
2018-04-24T02:21:44.913Z,6.80
2018-04-24T02:23:37.754Z,7.40
2018-04-24T02:24:37.674Z,8.20
2018-04-24T02:26:30.431Z,7.80
2018-04-24T02:27:30.320Z,7.30
2018-04-24T02:29:23.146Z,7.20
2018-04-24T02:30:23.065Z,7.90
2018-04-24T02:32:15.810Z,7.90
2018-04-24T02:33:15.722Z,7.00
2018-04-24T02:35:08.449Z,7.30
2018-04-24T02:36:08.349Z,6.70
2018-04-24T02:38:01.110Z,7.40
2018-04-24T02:39:01.004Z,7.60
2018-04-24T02:40:53.758Z,6.60
2018-04-24T02:41:53.646Z,7.30
2018-04-24T02:43:46.408Z,6.60
2018-04-24T02:44:46.298Z,7.20
2018-04-24T02:46:39.054Z,6.80
2018-04-24T02:47:38.959Z,7.30
2018-04-24T02:49:32.319Z,7.30
2018-04-24T02:50:32.200Z,9.00
2018-04-24T02:52:24.943Z,7.10
2018-04-24T02:53:25.455Z,7.40
2018-04-24T02:55:17.623Z,7.60
2018-04-24T02:56:17.489Z,8.00
2018-04-24T02:58:10.298Z,7.40
2018-04-24T02:59:10.142Z,8.80
2018-04-24T03:01:02.991Z,7.30
2018-04-24T03:02:02.911Z,7.90
2018-04-24T03:03:55.666Z,8.10
2018-04-24T03:04:55.544Z,9.90
2018-04-24T03:06:48.279Z,8.70
2018-04-24T03:07:48.202Z,8.60
2018-04-24T03:09:41.053Z,8.30
2018-04-24T03:10:40.969Z,10.00
2018-04-24T03:12:34.223Z,8.70
2018-04-24T03:13:34.095Z,8.70
2018-04-24T03:15:26.858Z,9.40
2018-04-24T03:16:26.738Z,9.80
2018-04-24T03:18:19.611Z,9.30
2018-04-24T03:19:19.486Z,10.80
2018-04-24T03:21:12.251Z,10.10
2018-04-24T03:22:12.168Z,10.80
2018-04-24T03:24:04.892Z,13.10
2018-04-24T03:25:04.812Z,11.70
2018-04-24T03:26:57.551Z,16.10
2018-04-24T03:27:57.433Z,15.10
2018-04-24T03:29:50.278Z,17.10
2018-04-24T03:30:50.184Z,17.50
2018-04-24T03:32:42.935Z,17.60
2018-04-24T03:33:42.829Z,16.50
2018-04-24T03:35:35.575Z,18.30
2018-04-24T03:36:35.482Z,18.20
2018-04-24T03:38:28.251Z,17.80
2018-04-24T03:39:28.123Z,21.00
2018-04-24T03:41:20.971Z,21.60
2018-04-24T03:42:20.910Z,21.50
2018-04-24T03:44:13.650Z,21.90
2018-04-24T03:45:13.535Z,22.20
2018-04-24T03:47:06.327Z,21.70
2018-04-24T03:48:06.176Z,21.30
2018-04-24T03:49:59.427Z,20.40
2018-04-24T03:50:59.327Z,20.60
2018-04-24T03:52:52.081Z,21.30
2018-04-24T03:53:51.991Z,21.00
2018-04-24T03:55:44.825Z,20.20
2018-04-24T03:56:44.739Z,20.50
2018-04-24T03:58:37.575Z,19.80
2018-04-24T03:59:37.484Z,19.50
2018-04-24T04:01:30.325Z,19.20
2018-04-24T04:02:30.242Z,20.20
2018-04-24T04:04:23.089Z,19.70
2018-04-24T04:05:22.993Z,19.20
2018-04-24T04:07:15.725Z,16.50
2018-04-24T04:08:15.634Z,16.20
2018-04-24T04:10:08.898Z,14.40
2018-04-24T04:11:08.790Z,13.90
2018-04-24T04:13:01.525Z,14.10
2018-04-24T04:14:01.441Z,12.80
2018-04-24T04:15:54.331Z,11.50
2018-04-24T04:16:54.192Z,11.50
2018-04-24T04:18:47.029Z,10.10
2018-04-24T04:19:46.936Z,10.10
2018-04-24T04:21:39.680Z,10.60
2018-04-24T04:22:39.610Z,10.40
2018-04-24T04:24:32.442Z,9.00
2018-04-24T04:25:32.357Z,9.00
2018-04-24T04:27:25.130Z,10.80
2018-04-24T04:28:24.979Z,10.70
2018-04-24T04:30:17.841Z,9.50
2018-04-24T04:31:17.622Z,11.40
2018-04-24T04:33:10.467Z,11.50
2018-04-24T04:34:10.372Z,11.60
2018-04-24T04:36:03.141Z,10.20
2018-04-24T04:37:03.020Z,10.30
2018-04-24T04:38:55.783Z,10.60
2018-04-24T04:39:55.696Z,9.50
2018-04-24T04:41:48.440Z,10.70
2018-04-24T04:42:48.332Z,10.20
2018-04-24T04:44:41.078Z,13.60
2018-04-24T04:45:40.972Z,13.40
2018-04-24T04:47:33.735Z,12.90
2018-04-24T04:48:33.608Z,12.40
2018-04-24T04:50:26.446Z,12.20
2018-04-24T04:51:26.353Z,11.70
2018-04-24T04:53:19.137Z,10.00
2018-04-24T04:54:19.003Z,10.30
2018-04-24T04:56:11.795Z,10.30
2018-04-24T04:57:11.656Z,9.80
2018-04-24T04:59:04.454Z,9.40
2018-04-24T05:00:04.318Z,8.80
2018-04-24T05:01:57.185Z,8.50
2018-04-24T05:02:57.066Z,8.80
2018-04-24T05:04:49.825Z,7.90
2018-04-24T05:05:49.693Z,7.70
2018-04-24T05:07:42.554Z,8.30
2018-04-24T05:08:42.467Z,7.30
2018-04-24T05:10:35.220Z,7.80
2018-04-24T05:11:35.091Z,8.10
2018-04-24T05:13:27.941Z,9.50
2018-04-24T05:14:27.844Z,7.40
2018-04-24T05:16:20.673Z,8.10
2018-04-24T05:17:20.491Z,7.40
2018-04-24T05:19:13.778Z,8.80
2018-04-24T05:20:13.678Z,7.80
2018-04-24T05:22:06.426Z,7.80
2018-04-24T05:23:06.299Z,8.90
2018-04-24T05:24:59.053Z,8.20
2018-04-24T05:25:58.957Z,8.00
2018-04-24T05:27:51.817Z,9.50
2018-04-24T05:28:51.590Z,8.70
2018-04-24T05:30:44.441Z,7.80
2018-04-24T05:31:44.341Z,8.30
2018-04-24T05:33:37.126Z,7.80
2018-04-24T05:34:36.983Z,8.50
2018-04-24T05:36:29.781Z,10.70
2018-04-24T05:37:29.642Z,8.90
2018-04-24T05:39:22.471Z,10.30
2018-04-24T05:40:22.381Z,9.80
2018-04-24T05:42:15.130Z,9.70
2018-04-24T05:43:15.043Z,9.80
2018-04-24T05:45:07.820Z,10.90
2018-04-24T05:46:07.670Z,11.10
2018-04-24T05:48:00.447Z,10.80
2018-04-24T05:49:00.355Z,11.10
2018-04-24T05:50:53.126Z,13.30
2018-04-24T05:51:52.977Z,11.60
2018-04-24T05:53:45.722Z,12.60
2018-04-24T05:54:45.619Z,12.20
2018-04-24T05:56:38.501Z,11.40
2018-04-24T05:57:38.404Z,11.90
2018-04-24T05:59:31.114Z,11.60
2018-04-24T06:00:31.018Z,11.60
2018-04-24T06:02:23.791Z,11.70
2018-04-24T06:03:23.670Z,11.90
2018-04-24T06:05:16.530Z,11.70
2018-04-24T06:06:16.405Z,12.00
2018-04-24T06:08:09.178Z,11.70
2018-04-24T06:09:09.080Z,11.60
2018-04-24T06:11:01.891Z,11.70
2018-04-24T06:12:01.808Z,13.20
2018-04-24T06:13:54.573Z,11.60
2018-04-24T06:14:54.473Z,11.60
2018-04-24T06:16:47.192Z,10.90
2018-04-24T06:17:47.119Z,10.80
2018-04-24T06:19:39.855Z,10.10
2018-04-24T06:20:39.746Z,9.60
2018-04-24T06:22:32.540Z,9.70
2018-04-24T06:23:32.390Z,10.30
2018-04-24T06:25:25.170Z,9.30
2018-04-24T06:26:25.048Z,9.50
2018-04-24T06:28:17.819Z,10.50
2018-04-24T06:29:17.692Z,9.40
2018-04-24T06:31:10.951Z,8.70
2018-04-24T06:32:10.852Z,9.30
2018-04-24T06:34:03.714Z,11.00
2018-04-24T06:35:03.598Z,9.60
2018-04-24T06:36:56.362Z,8.10
2018-04-24T06:37:56.267Z,8.70
2018-04-24T06:39:49.117Z,7.40
2018-04-24T06:40:48.996Z,8.70
2018-04-24T06:42:41.745Z,8.30
2018-04-24T06:43:41.639Z,10.70
2018-04-24T06:45:34.403Z,8.40
2018-04-24T06:46:34.313Z,8.00
2018-04-24T06:48:27.691Z,8.10
2018-04-24T06:49:27.056Z,7.80
2018-04-24T06:51:19.797Z,7.60
2018-04-24T06:52:19.682Z,8.50
2018-04-24T06:54:12.533Z,8.70
2018-04-24T06:55:12.430Z,8.70
2018-04-24T06:57:05.707Z,7.70
2018-04-24T06:58:05.600Z,9.20
2018-04-24T06:59:58.375Z,8.30
2018-04-24T07:00:58.239Z,8.60
2018-04-24T07:02:52.544Z,7.20
2018-04-24T07:03:52.432Z,7.30
2018-04-24T07:05:45.210Z,8.00
2018-04-24T07:06:45.071Z,7.60
2018-04-24T07:08:37.925Z,8.70
2018-04-24T07:09:37.822Z,9.00
2018-04-24T07:11:30.626Z,7.30
2018-04-24T07:12:30.522Z,7.40
2018-04-24T07:14:23.224Z,7.30
2018-04-24T07:15:23.121Z,7.30
2018-04-24T07:17:15.882Z,7.20
2018-04-24T07:18:15.769Z,6.20
2018-04-24T07:20:08.624Z,6.90
2018-04-24T07:21:08.513Z,7.30
2018-04-24T07:23:01.380Z,6.80
2018-04-24T07:24:01.328Z,6.70
2018-04-24T07:25:54.128Z,7.90
2018-04-24T07:26:54.017Z,6.30
2018-04-24T07:28:46.767Z,7.90
2018-04-24T07:29:46.671Z,6.20
2018-04-24T07:31:39.536Z,6.40
2018-04-24T07:32:39.447Z,7.50
2018-04-24T07:34:32.168Z,5.30
2018-04-24T07:35:32.066Z,5.40
2018-04-24T07:37:24.930Z,4.60
2018-04-24T07:38:24.804Z,5.60
2018-04-24T07:40:17.550Z,3.70
2018-04-24T07:41:17.467Z,4.10
2018-04-24T07:43:10.364Z,4.40
2018-04-24T07:44:10.232Z,4.20
2018-04-24T07:46:03.073Z,5.00
2018-04-24T07:47:02.971Z,4.10
2018-04-24T07:48:55.715Z,6.00
2018-04-24T07:49:55.596Z,5.10
2018-04-24T07:51:48.437Z,5.40
2018-04-24T07:52:48.346Z,4.70
2018-04-24T07:54:41.120Z,5.80
2018-04-24T07:55:41.001Z,4.70
2018-04-24T07:57:33.857Z,6.90
2018-04-24T07:58:33.639Z,6.10
2018-04-24T08:00:26.506Z,4.00
2018-04-24T08:01:26.409Z,5.90
2018-04-24T08:03:19.257Z,7.20
2018-04-24T08:04:19.060Z,5.50
2018-04-24T08:06:11.896Z,4.70
2018-04-24T08:07:11.785Z,4.00
2018-04-24T08:09:04.631Z,5.10
2018-04-24T08:10:04.539Z,4.30
2018-04-24T08:11:57.304Z,4.50
2018-04-24T08:12:57.196Z,6.20
2018-04-24T08:14:50.084Z,3.60
2018-04-24T08:15:49.949Z,4.40
2018-04-24T08:17:43.194Z,3.80
2018-04-24T08:18:43.107Z,6.00
2018-04-24T08:20:35.904Z,5.00
2018-04-24T08:21:35.759Z,4.20
2018-04-24T08:23:28.584Z,4.40
2018-04-24T08:24:28.494Z,5.60
2018-04-24T08:26:21.760Z,5.00
2018-04-24T08:27:21.652Z,3.70
2018-04-24T08:29:14.497Z,3.70
2018-04-24T08:30:14.394Z,5.70
2018-04-24T08:32:07.249Z,7.00
2018-04-24T08:33:07.149Z,4.80
2018-04-24T08:34:59.989Z,3.70
2018-04-24T08:35:59.904Z,3.80
2018-04-24T08:37:52.673Z,5.20
2018-04-24T08:38:52.561Z,5.00
2018-04-24T08:40:45.422Z,5.10
2018-04-24T08:41:45.298Z,5.10
2018-04-24T08:43:38.054Z,4.50
2018-04-24T08:44:37.958Z,4.00
2018-04-24T08:46:30.809Z,4.60
2018-04-24T08:47:30.701Z,6.10
2018-04-24T08:49:23.529Z,4.30
2018-04-24T08:50:23.449Z,5.00
2018-04-24T08:52:16.291Z,4.40
2018-04-24T08:53:16.200Z,5.40
2018-04-24T08:55:09.037Z,4.80
2018-04-24T08:56:08.943Z,5.50
2018-04-24T08:58:01.796Z,5.10
2018-04-24T08:59:01.711Z,7.30
2018-04-24T09:00:54.946Z,4.50
2018-04-24T09:01:54.873Z,5.30
2018-04-24T09:03:47.728Z,5.40
2018-04-24T09:04:47.604Z,6.50
2018-04-24T09:06:40.441Z,6.20
2018-04-24T09:07:40.351Z,4.50
2018-04-24T09:09:33.106Z,5.40
2018-04-24T09:10:33.004Z,4.40
2018-04-24T09:12:25.851Z,4.40
2018-04-24T09:13:25.751Z,4.90
2018-04-24T09:15:18.500Z,5.10
2018-04-24T09:16:18.421Z,3.80
2018-04-24T09:18:11.255Z,3.90
2018-04-24T09:19:11.148Z,5.40
2018-04-24T09:21:03.897Z,4.80
2018-04-24T09:22:03.794Z,4.00
2018-04-24T09:23:56.656Z,5.60
2018-04-24T09:24:56.536Z,6.00
2018-04-24T09:26:49.368Z,4.40
2018-04-24T09:27:49.198Z,4.40
2018-04-24T09:29:42.053Z,4.60
2018-04-24T09:30:41.940Z,4.20
2018-04-24T09:34:20.097Z,5.40
2018-04-24T09:35:07.372Z,5.00
2018-04-24T09:37:00.202Z,3.40
2018-04-24T09:38:00.105Z,5.70
2018-04-24T09:39:52.866Z,6.20
2018-04-24T09:40:52.760Z,4.90
2018-04-24T09:42:45.628Z,4.80
2018-04-24T09:43:45.539Z,5.40
2018-04-24T09:45:38.399Z,3.80
2018-04-24T09:46:38.274Z,5.20
2018-04-24T09:48:30.994Z,5.30
2018-04-24T09:49:30.918Z,4.50
2018-04-24T09:51:23.815Z,5.60
2018-04-24T09:52:23.681Z,4.30
2018-04-24T09:54:16.501Z,3.90
2018-04-24T09:55:16.404Z,5.60
2018-04-24T09:57:09.165Z,5.40
2018-04-24T09:58:09.045Z,5.00
2018-04-24T10:00:01.914Z,5.70
2018-04-24T10:01:01.797Z,5.20
2018-04-24T10:02:54.593Z,3.70
2018-04-24T10:03:54.479Z,4.10
2018-04-24T10:05:47.327Z,3.40
2018-04-24T10:06:47.198Z,4.10
2018-04-24T10:08:40.050Z,3.20
2018-04-24T10:09:39.935Z,5.10
2018-04-24T10:11:32.800Z,4.90
2018-04-24T10:12:32.699Z,4.40
2018-04-24T10:14:25.959Z,6.40
2018-04-24T10:15:25.860Z,4.20
2018-04-24T10:17:18.704Z,4.90
2018-04-24T10:18:18.605Z,5.00
2018-04-24T10:20:11.878Z,4.00
2018-04-24T10:21:11.757Z,4.50
2018-04-24T10:23:04.628Z,5.20
2018-04-24T10:24:04.524Z,5.50
2018-04-24T10:25:57.249Z,6.10
2018-04-24T10:26:57.173Z,3.90
2018-04-24T10:28:50.023Z,5.30
2018-04-24T10:29:49.901Z,5.10
2018-04-24T10:31:42.649Z,5.80
2018-04-24T10:32:42.552Z,6.40
2018-04-24T10:34:35.501Z,5.80
2018-04-24T10:35:35.400Z,6.30
2018-04-24T10:37:28.215Z,5.20
2018-04-24T10:38:28.052Z,4.20
2018-04-24T10:40:20.965Z,4.20
2018-04-24T10:41:20.801Z,5.80
2018-04-24T10:43:13.669Z,4.50
2018-04-24T10:44:13.544Z,6.20
2018-04-24T10:46:06.417Z,5.10
2018-04-24T10:47:06.305Z,4.70
2018-04-24T10:48:59.041Z,4.40
2018-04-24T10:49:58.950Z,7.60
2018-04-24T10:51:51.883Z,6.50
2018-04-24T10:52:51.693Z,5.50
2018-04-24T10:54:44.546Z,5.10
2018-04-24T10:55:44.355Z,4.10
2018-04-24T10:57:37.221Z,4.80
2018-04-24T10:58:37.091Z,5.20
2018-04-24T11:00:29.840Z,4.60
2018-04-24T11:01:29.743Z,4.80
2018-04-24T11:03:22.634Z,5.90
2018-04-24T11:04:22.518Z,5.60
2018-04-24T11:06:15.332Z,4.60
2018-04-24T11:07:15.268Z,6.20
2018-04-24T11:09:08.596Z,4.90
2018-04-24T11:10:08.403Z,5.70
2018-04-24T11:12:01.175Z,4.60
2018-04-24T11:13:01.052Z,5.00
2018-04-24T11:14:53.893Z,6.60
2018-04-24T11:15:53.819Z,5.20
2018-04-24T11:17:46.691Z,6.00
2018-04-24T11:18:46.569Z,5.30
2018-04-24T11:20:39.421Z,5.10
2018-04-24T11:21:39.318Z,5.00
2018-04-24T11:23:32.164Z,6.20
2018-04-24T11:24:32.045Z,4.70
2018-04-24T11:26:25.305Z,4.60
2018-04-24T11:27:25.219Z,4.60
2018-04-24T11:29:18.097Z,4.60
2018-04-24T11:30:17.959Z,5.60
2018-04-24T11:32:10.803Z,4.20
2018-04-24T11:33:10.704Z,5.90
2018-04-24T11:35:03.570Z,4.40
2018-04-24T11:36:03.525Z,5.10
2018-04-24T11:37:56.315Z,4.90
2018-04-24T11:38:56.244Z,3.90
2018-04-24T11:40:49.090Z,4.10
2018-04-24T11:41:48.977Z,5.20
2018-04-24T11:43:42.230Z,4.60
2018-04-24T11:44:42.131Z,4.20
2018-04-24T11:46:34.977Z,3.00
2018-04-24T11:47:34.863Z,4.00
2018-04-24T11:49:27.716Z,3.60
2018-04-24T11:50:27.634Z,3.40
2018-04-24T11:52:20.483Z,3.60
2018-04-24T11:53:20.357Z,3.80
2018-04-24T11:55:13.234Z,3.80
2018-04-24T11:56:13.113Z,4.00
2018-04-24T11:58:05.975Z,4.20
2018-04-24T11:59:05.887Z,3.00
2018-04-24T12:00:58.747Z,4.40
2018-04-24T12:01:58.617Z,4.10
2018-04-24T12:03:51.483Z,4.60
2018-04-24T12:04:51.360Z,4.40
2018-04-24T12:06:44.234Z,4.10
2018-04-24T12:07:44.107Z,4.00
2018-04-24T12:09:36.980Z,3.40
2018-04-24T12:10:36.876Z,5.00
2018-04-24T12:12:29.723Z,4.20
2018-04-24T12:13:29.615Z,4.20
2018-04-24T12:15:22.864Z,6.10
2018-04-24T12:16:22.784Z,3.80
2018-04-24T12:18:15.641Z,4.80
2018-04-24T12:19:15.525Z,4.50
2018-04-24T12:21:08.274Z,3.40
2018-04-24T12:22:08.177Z,3.40
2018-04-24T12:24:00.933Z,3.30
2018-04-24T12:25:00.819Z,4.00
2018-04-24T12:26:54.088Z,4.20
2018-04-24T12:27:53.993Z,4.00
2018-04-24T12:29:46.840Z,3.90
2018-04-24T12:30:46.714Z,4.50
2018-04-24T12:32:39.587Z,4.60
2018-04-24T12:33:39.489Z,4.90
2018-04-24T12:35:32.234Z,4.30
2018-04-24T12:36:32.125Z,3.00
2018-04-24T12:38:24.992Z,3.70
2018-04-24T12:39:24.884Z,4.00
2018-04-24T12:41:17.629Z,3.90
2018-04-24T12:42:17.532Z,3.90
2018-04-24T12:44:10.408Z,3.70
2018-04-24T12:45:10.320Z,4.50
2018-04-24T12:47:03.130Z,4.60
2018-04-24T12:48:03.037Z,3.70
2018-04-24T12:49:55.880Z,4.00
2018-04-24T12:50:55.764Z,3.80
2018-04-24T12:52:49.056Z,3.10
2018-04-24T12:53:48.927Z,3.80
2018-04-24T12:55:41.792Z,3.30
2018-04-24T12:56:41.687Z,4.30
2018-04-24T12:58:34.432Z,3.60
2018-04-24T12:59:34.333Z,3.70
2018-04-24T13:01:27.196Z,3.30
2018-04-24T13:02:27.102Z,5.60
2018-04-24T13:04:19.922Z,5.00
2018-04-24T13:05:19.814Z,5.00
2018-04-24T13:07:12.699Z,4.50
2018-04-24T13:08:12.565Z,3.90
2018-04-24T13:10:05.545Z,4.50
2018-04-24T13:11:05.435Z,4.00
2018-04-24T13:12:58.265Z,5.00
2018-04-24T13:13:58.167Z,3.80
2018-04-24T13:15:51.069Z,3.40
2018-04-24T13:16:50.818Z,3.40
2018-04-24T13:18:43.668Z,4.60
2018-04-24T13:19:43.566Z,4.60
2018-04-24T13:21:36.317Z,4.40
2018-04-24T13:22:36.242Z,3.60
2018-04-24T13:24:29.478Z,4.30
2018-04-24T13:25:29.386Z,4.70
2018-04-24T13:27:22.253Z,5.10
2018-04-24T13:28:22.144Z,4.20
2018-04-24T13:30:14.982Z,4.40
2018-04-24T13:31:14.877Z,4.00
2018-04-24T13:33:07.631Z,4.50
2018-04-24T13:34:07.567Z,2.90
2018-04-24T13:36:00.418Z,4.70
2018-04-24T13:37:00.304Z,4.90
2018-04-24T13:38:53.621Z,3.90
2018-04-24T13:39:53.022Z,3.80
2018-04-24T13:41:45.894Z,3.50
2018-04-24T13:42:45.775Z,6.20
2018-04-24T13:44:38.633Z,3.50
2018-04-24T13:45:38.534Z,3.70
2018-04-24T13:47:31.408Z,3.20
2018-04-24T13:48:31.277Z,3.30
2018-04-24T13:50:24.153Z,3.70
2018-04-24T13:51:24.024Z,5.50
2018-04-24T13:53:16.778Z,4.50
2018-04-24T13:54:16.680Z,3.00
2018-04-24T13:56:09.521Z,4.90
2018-04-24T13:57:09.410Z,7.40
2018-04-24T13:59:02.273Z,4.70
2018-04-24T14:00:02.173Z,4.40
2018-04-24T14:01:55.006Z,5.60
2018-04-24T14:02:54.909Z,4.70
2018-04-24T14:04:47.773Z,5.00
2018-04-24T14:05:47.669Z,4.50
2018-04-24T14:07:40.398Z,4.90
2018-04-24T14:08:40.318Z,3.30
2018-04-24T14:10:33.075Z,4.30
2018-04-24T14:11:32.965Z,5.20
2018-04-24T14:13:25.813Z,6.30
2018-04-24T14:14:25.707Z,4.70
2018-04-24T14:16:18.469Z,6.40
2018-04-24T14:17:18.364Z,5.00
2018-04-24T14:19:11.606Z,3.90
2018-04-24T14:20:11.515Z,4.60
2018-04-24T14:22:04.361Z,3.30
2018-04-24T14:23:04.334Z,4.10
2018-04-24T14:24:57.000Z,4.10
2018-04-24T14:25:56.910Z,3.90
2018-04-24T14:27:49.756Z,5.00
2018-04-24T14:28:49.667Z,4.60
2018-04-24T14:30:42.412Z,3.90
2018-04-24T14:31:42.321Z,3.40
2018-04-24T14:33:35.153Z,5.40
2018-04-24T14:34:35.048Z,4.70
2018-04-24T14:36:27.944Z,4.10
2018-04-24T14:37:27.803Z,5.30
2018-04-24T14:39:20.664Z,5.50
2018-04-24T14:40:20.557Z,3.80
2018-04-24T14:42:13.409Z,3.90
2018-04-24T14:43:13.315Z,3.80
2018-04-24T14:45:06.172Z,3.60
2018-04-24T14:46:06.055Z,4.30
2018-04-24T14:47:58.918Z,4.30
2018-04-24T14:48:58.816Z,4.60
2018-04-24T14:50:51.646Z,4.10
2018-04-24T14:51:51.550Z,5.80
2018-04-24T14:53:44.409Z,4.30
2018-04-24T14:54:44.306Z,4.00
2018-04-24T14:56:37.181Z,4.30
2018-04-24T14:57:37.052Z,4.90
2018-04-24T14:59:29.966Z,5.60
2018-04-24T15:00:29.804Z,5.50
2018-04-24T15:02:22.650Z,5.90
2018-04-24T15:03:22.554Z,4.40
2018-04-24T15:05:15.417Z,5.00
2018-04-24T15:06:15.335Z,5.10
2018-04-24T15:08:08.152Z,4.70
2018-04-24T15:09:08.058Z,5.70
2018-04-24T15:11:00.904Z,4.50
2018-04-24T15:12:00.797Z,6.20
2018-04-24T15:13:53.653Z,6.70
2018-04-24T15:14:53.686Z,5.50
2018-04-24T15:16:46.403Z,5.40
2018-04-24T15:17:46.312Z,5.30
2018-04-24T15:19:39.565Z,5.90
2018-04-24T15:20:39.060Z,5.90
2018-04-24T15:22:31.927Z,7.40
2018-04-24T15:23:31.809Z,6.90
2018-04-24T15:25:24.685Z,6.40
2018-04-24T15:26:24.541Z,5.70
2018-04-24T15:28:17.391Z,6.60
2018-04-24T15:29:17.303Z,5.80
2018-04-24T15:31:10.098Z,6.10
2018-04-24T15:32:09.945Z,5.90
2018-04-24T15:34:02.814Z,5.50
2018-04-24T15:35:02.723Z,5.90
2018-04-24T15:36:55.533Z,5.60
2018-04-24T15:37:55.443Z,5.20
2018-04-24T15:39:48.330Z,5.80
2018-04-24T15:40:48.188Z,5.90
2018-04-24T15:42:40.935Z,6.10
2018-04-24T15:43:40.841Z,6.30
2018-04-24T15:45:33.687Z,5.60
2018-04-24T15:46:33.583Z,6.40
2018-04-24T15:48:26.429Z,5.50
2018-04-24T15:49:26.435Z,6.00
2018-04-24T15:51:19.273Z,6.00
2018-04-24T15:52:19.093Z,6.20
2018-04-24T15:54:11.934Z,6.00
2018-04-24T15:55:11.845Z,7.30
2018-04-24T15:57:04.724Z,6.30
2018-04-24T15:58:04.652Z,6.50
2018-04-24T15:59:57.433Z,5.80
2018-04-24T16:00:57.342Z,5.80
2018-04-24T16:02:50.202Z,6.30
2018-04-24T16:03:50.085Z,6.00
2018-04-24T16:05:42.942Z,5.60
2018-04-24T16:06:42.854Z,5.50
2018-04-24T16:08:35.692Z,5.20
2018-04-24T16:09:35.590Z,5.20
2018-04-24T16:11:28.446Z,5.70
2018-04-24T16:12:28.331Z,6.10
2018-04-24T16:14:21.185Z,6.00
2018-04-24T16:15:21.091Z,5.50
2018-04-24T16:17:13.945Z,5.80
2018-04-24T16:18:13.844Z,6.20
2018-04-24T16:20:06.688Z,5.90
2018-04-24T16:21:06.612Z,5.80
2018-04-24T16:22:59.459Z,6.40
2018-04-24T16:23:59.334Z,6.20
2018-04-24T16:25:52.291Z,6.50
2018-04-24T16:26:52.197Z,6.40
2018-04-24T16:28:45.037Z,7.00
2018-04-24T16:29:45.036Z,6.70
2018-04-24T16:31:37.785Z,7.10
2018-04-24T16:32:37.692Z,7.30
2018-04-24T16:34:30.572Z,7.10
2018-04-24T16:35:30.457Z,7.20
2018-04-24T16:37:23.314Z,7.50
2018-04-24T16:38:23.191Z,7.60
2018-04-24T16:40:16.043Z,7.60
2018-04-24T16:41:15.935Z,8.00
2018-04-24T16:43:09.212Z,7.80
2018-04-24T16:44:09.229Z,7.50
2018-04-24T16:46:01.946Z,8.40
2018-04-24T16:47:01.846Z,9.30
2018-04-24T16:48:55.442Z,9.40
2018-04-24T16:49:55.255Z,10.30
2018-04-24T16:51:47.469Z,10.70
2018-04-24T16:52:47.358Z,10.10
2018-04-24T16:54:40.231Z,11.20
2018-04-24T16:55:40.099Z,11.10
2018-04-24T16:57:32.965Z,10.80
2018-04-24T16:58:32.858Z,10.80
2018-04-24T17:00:25.636Z,10.30
2018-04-24T17:01:25.643Z,10.10
2018-04-24T17:03:18.367Z,11.60
2018-04-24T17:04:18.255Z,11.30
2018-04-24T17:06:11.384Z,11.30
2018-04-24T17:07:11.202Z,10.50
2018-04-24T17:09:03.938Z,10.90
2018-04-24T17:10:03.874Z,11.50
2018-04-24T17:11:57.112Z,10.30
2018-04-24T17:12:57.001Z,11.00
2018-04-24T17:14:49.773Z,10.70
2018-04-24T17:15:49.646Z,11.20
2018-04-24T17:17:42.505Z,11.10
2018-04-24T17:18:42.385Z,11.00
2018-04-24T17:20:35.159Z,10.60
2018-04-24T17:21:35.055Z,10.90
2018-04-24T17:23:27.816Z,11.60
2018-04-24T17:24:27.716Z,11.30
2018-04-24T17:26:20.454Z,11.20
2018-04-24T17:27:20.329Z,10.70
2018-04-24T17:29:13.200Z,12.50
2018-04-24T17:30:13.131Z,12.90
2018-04-24T17:32:05.972Z,11.50
2018-04-24T17:33:05.857Z,11.40
2018-04-24T17:34:58.601Z,12.00
2018-04-24T17:35:58.486Z,12.20
2018-04-24T17:37:51.279Z,12.20
2018-04-24T17:38:51.134Z,11.90
2018-04-24T17:40:43.987Z,11.60
2018-04-24T17:41:43.892Z,12.10
2018-04-24T17:43:36.652Z,11.50
2018-04-24T17:44:36.551Z,11.40
2018-04-24T17:46:29.402Z,11.50
2018-04-24T17:47:29.284Z,12.50
2018-04-24T17:49:22.036Z,12.00
2018-04-24T17:50:21.953Z,12.30
2018-04-24T17:52:14.764Z,12.70
2018-04-24T17:53:14.673Z,12.70
2018-04-24T17:55:07.443Z,12.20
2018-04-24T17:56:07.364Z,11.40
2018-04-24T17:58:00.224Z,11.50
2018-04-24T17:59:00.069Z,12.00
2018-04-24T18:00:52.847Z,12.60
2018-04-24T18:01:52.749Z,12.70
2018-04-24T18:03:45.587Z,12.40
2018-04-24T18:04:45.597Z,12.20
2018-04-24T18:06:38.232Z,12.60
2018-04-24T18:07:38.145Z,13.00
2018-04-24T18:09:30.889Z,12.50
2018-04-24T18:10:30.755Z,12.40
2018-04-24T18:12:23.561Z,12.50
2018-04-24T18:13:23.416Z,13.10
2018-04-24T18:15:16.304Z,13.30
2018-04-24T18:16:16.156Z,13.20
2018-04-24T18:18:09.004Z,12.70
2018-04-24T18:19:08.875Z,12.60
2018-04-24T18:21:01.684Z,13.10
2018-04-24T18:22:01.552Z,12.90
2018-04-24T18:23:54.414Z,12.50
2018-04-24T18:24:54.307Z,13.30
2018-04-24T18:26:47.571Z,14.10
2018-04-24T18:27:47.532Z,14.30
2018-04-24T18:29:40.715Z,13.80
2018-04-24T18:30:40.626Z,14.20
2018-04-24T18:32:33.380Z,13.20
2018-04-24T18:33:33.290Z,13.10
2018-04-24T18:35:26.057Z,13.10
2018-04-24T18:36:25.928Z,13.00
2018-04-24T18:38:18.773Z,13.00
2018-04-24T18:39:18.678Z,13.00
2018-04-24T18:41:11.460Z,12.70
2018-04-24T18:42:11.318Z,13.40
2018-04-24T18:44:04.058Z,12.60
2018-04-24T18:45:03.970Z,12.80
2018-04-24T18:46:56.784Z,12.20
2018-04-24T18:47:56.617Z,12.40
2018-04-24T18:49:49.360Z,11.90
2018-04-24T18:50:49.249Z,12.90
2018-04-24T18:52:42.162Z,12.30
2018-04-24T18:53:42.043Z,13.00
2018-04-24T18:55:34.876Z,13.30
2018-04-24T18:56:34.748Z,13.50
2018-04-24T18:58:27.611Z,13.40
2018-04-24T18:59:27.542Z,13.30
2018-04-24T19:01:20.261Z,13.20
2018-04-24T19:02:20.160Z,13.50